Аэропорт: Владикавказ (Беслан). Владикавказ

ICAO: URMO

METAR:
2019-07-23 18:00:00
URMO 231800Z VRB01MPS 9000 -SHRA BKN037CB 19/19 Q1013 R09/290150 NOSIG RMK QFE716/0955
METAR:
2019-07-23 14:00:00
TAF URMO 231400Z 2315/2324 24003G08MPS 9999 BKN020 TEMPO 2315/2321 3100 -SHRA SCT011 BKN015CB